sensor_id;sensor_type;location;lat;lon;timestamp;temperature;humidity
23403;DHT22;11874;48.228;11.684;2024-01-06T00:00:51;7.90;99.90
23403;DHT22;11874;48.228;11.684;2024-01-06T00:03:19;7.90;99.90
23403;DHT22;11874;48.228;11.684;2024-01-06T00:05:47;7.90;99.90
23403;DHT22;11874;48.228;11.684;2024-01-06T00:08:15;7.90;99.90
23403;DHT22;11874;48.228;11.684;2024-01-06T00:10:49;7.90;99.90
23403;DHT22;11874;48.228;11.684;2024-01-06T00:13:21;7.90;99.90
23403;DHT22;11874;48.228;11.684;2024-01-06T00:15:49;7.90;99.90
23403;DHT22;11874;48.228;11.684;2024-01-06T00:18:19;7.90;99.90
23403;DHT22;11874;48.228;11.684;2024-01-06T00:20:47;7.90;99.90
23403;DHT22;11874;48.228;11.684;2024-01-06T00:23:17;7.90;99.90
23403;DHT22;11874;48.228;11.684;2024-01-06T00:25:45;8.00;99.90
23403;DHT22;11874;48.228;11.684;2024-01-06T00:28:15;7.90;99.90
23403;DHT22;11874;48.228;11.684;2024-01-06T00:30:45;7.90;99.90
23403;DHT22;11874;48.228;11.684;2024-01-06T00:33:16;7.90;99.90
23403;DHT22;11874;48.228;11.684;2024-01-06T00:35:46;7.90;99.90
23403;DHT22;11874;48.228;11.684;2024-01-06T00:38:13;7.90;99.90
23403;DHT22;11874;48.228;11.684;2024-01-06T00:40:41;7.90;99.90
23403;DHT22;11874;48.228;11.684;2024-01-06T00:43:09;7.90;99.90
23403;DHT22;11874;48.228;11.684;2024-01-06T00:45:37;7.80;99.90
23403;DHT22;11874;48.228;11.684;2024-01-06T00:48:06;7.80;99.90
23403;DHT22;11874;48.228;11.684;2024-01-06T00:50:34;7.80;99.90
23403;DHT22;11874;48.228;11.684;2024-01-06T00:53:03;7.80;99.90
23403;DHT22;11874;48.228;11.684;2024-01-06T00:55:31;7.90;99.90
23403;DHT22;11874;48.228;11.684;2024-01-06T00:58:02;7.90;99.90
23403;DHT22;11874;48.228;11.684;2024-01-06T01:00:31;7.90;99.90
23403;DHT22;11874;48.228;11.684;2024-01-06T01:02:58;7.80;99.90
23403;DHT22;11874;48.228;11.684;2024-01-06T01:05:26;7.90;99.90
23403;DHT22;11874;48.228;11.684;2024-01-06T01:07:54;7.90;99.90
23403;DHT22;11874;48.228;11.684;2024-01-06T01:10:23;7.80;99.90
23403;DHT22;11874;48.228;11.684;2024-01-06T01:12:51;7.90;99.90
23403;DHT22;11874;48.228;11.684;2024-01-06T01:15:20;7.90;99.90
23403;DHT22;11874;48.228;11.684;2024-01-06T01:17:48;7.90;99.90
23403;DHT22;11874;48.228;11.684;2024-01-06T01:20:16;7.90;99.90
23403;DHT22;11874;48.228;11.684;2024-01-06T01:22:44;7.90;99.90
23403;DHT22;11874;48.228;11.684;2024-01-06T01:25:14;7.90;99.90
23403;DHT22;11874;48.228;11.684;2024-01-06T01:27:43;7.90;99.90
23403;DHT22;11874;48.228;11.684;2024-01-06T01:30:12;7.90;99.90
23403;DHT22;11874;48.228;11.684;2024-01-06T01:32:40;7.90;99.90
23403;DHT22;11874;48.228;11.684;2024-01-06T01:35:11;7.90;99.90
23403;DHT22;11874;48.228;11.684;2024-01-06T01:37:39;7.90;99.90
23403;DHT22;11874;48.228;11.684;2024-01-06T01:40:07;7.80;99.90
23403;DHT22;11874;48.228;11.684;2024-01-06T01:42:35;7.90;99.90
23403;DHT22;11874;48.228;11.684;2024-01-06T01:45:06;7.80;99.90
23403;DHT22;11874;48.228;11.684;2024-01-06T01:47:39;7.90;99.90
23403;DHT22;11874;48.228;11.684;2024-01-06T01:50:09;7.90;99.90
23403;DHT22;11874;48.228;11.684;2024-01-06T01:52:39;7.90;99.90
23403;DHT22;11874;48.228;11.684;2024-01-06T01:55:09;7.90;99.90
23403;DHT22;11874;48.228;11.684;2024-01-06T01:57:37;7.90;99.90
23403;DHT22;11874;48.228;11.684;2024-01-06T02:00:08;7.90;99.90
23403;DHT22;11874;48.228;11.684;2024-01-06T02:02:36;7.90;99.90
23403;DHT22;11874;48.228;11.684;2024-01-06T02:05:04;7.90;99.90
23403;DHT22;11874;48.228;11.684;2024-01-06T02:07:32;7.90;99.90
23403;DHT22;11874;48.228;11.684;2024-01-06T02:10:01;7.90;99.90
23403;DHT22;11874;48.228;11.684;2024-01-06T02:12:28;7.90;99.90
23403;DHT22;11874;48.228;11.684;2024-01-06T02:14:57;7.80;99.90
23403;DHT22;11874;48.228;11.684;2024-01-06T02:17:26;7.90;99.90
23403;DHT22;11874;48.228;11.684;2024-01-06T02:19:54;7.80;99.90
23403;DHT22;11874;48.228;11.684;2024-01-06T02:22:24;7.90;99.90
23403;DHT22;11874;48.228;11.684;2024-01-06T02:24:52;7.90;99.90
23403;DHT22;11874;48.228;11.684;2024-01-06T02:27:23;7.80;99.90
23403;DHT22;11874;48.228;11.684;2024-01-06T02:29:51;7.90;99.90
23403;DHT22;11874;48.228;11.684;2024-01-06T02:32:19;7.80;99.90
23403;DHT22;11874;48.228;11.684;2024-01-06T02:34:47;7.80;99.90
23403;DHT22;11874;48.228;11.684;2024-01-06T02:37:15;7.80;99.90
23403;DHT22;11874;48.228;11.684;2024-01-06T02:39:44;7.80;99.90
23403;DHT22;11874;48.228;11.684;2024-01-06T02:42:12;7.80;99.90
23403;DHT22;11874;48.228;11.684;2024-01-06T02:44:42;7.80;99.90
23403;DHT22;11874;48.228;11.684;2024-01-06T02:47:10;7.80;99.90
23403;DHT22;11874;48.228;11.684;2024-01-06T02:49:38;7.80;99.90
23403;DHT22;11874;48.228;11.684;2024-01-06T02:52:06;7.80;99.90
23403;DHT22;11874;48.228;11.684;2024-01-06T02:54:34;7.80;99.90
23403;DHT22;11874;48.228;11.684;2024-01-06T02:57:03;7.80;99.90
23403;DHT22;11874;48.228;11.684;2024-01-06T02:59:31;7.80;99.90
23403;DHT22;11874;48.228;11.684;2024-01-06T03:02:02;7.90;99.90
23403;DHT22;11874;48.228;11.684;2024-01-06T03:04:32;7.90;99.90
23403;DHT22;11874;48.228;11.684;2024-01-06T03:07:00;7.90;99.90
23403;DHT22;11874;48.228;11.684;2024-01-06T03:09:29;7.90;99.90
23403;DHT22;11874;48.228;11.684;2024-01-06T03:11:58;7.90;99.90
23403;DHT22;11874;48.228;11.684;2024-01-06T03:14:27;7.90;99.90
23403;DHT22;11874;48.228;11.684;2024-01-06T03:16:57;7.90;99.90
23403;DHT22;11874;48.228;11.684;2024-01-06T03:19:25;7.90;99.90
23403;DHT22;11874;48.228;11.684;2024-01-06T03:21:54;7.90;99.90
23403;DHT22;11874;48.228;11.684;2024-01-06T03:24:23;7.80;99.90
23403;DHT22;11874;48.228;11.684;2024-01-06T03:26:53;7.80;99.90
23403;DHT22;11874;48.228;11.684;2024-01-06T03:29:21;7.80;99.90
23403;DHT22;11874;48.228;11.684;2024-01-06T03:31:53;7.80;99.90
23403;DHT22;11874;48.228;11.684;2024-01-06T03:34:20;7.80;99.90
23403;DHT22;11874;48.228;11.684;2024-01-06T03:36:48;7.90;99.90
23403;DHT22;11874;48.228;11.684;2024-01-06T03:39:16;7.90;99.90
23403;DHT22;11874;48.228;11.684;2024-01-06T03:41:47;7.80;99.90
23403;DHT22;11874;48.228;11.684;2024-01-06T03:44:15;7.80;99.90
23403;DHT22;11874;48.228;11.684;2024-01-06T03:46:43;7.80;99.90
23403;DHT22;11874;48.228;11.684;2024-01-06T03:49:13;7.80;99.90
23403;DHT22;11874;48.228;11.684;2024-01-06T03:51:41;7.90;99.90
23403;DHT22;11874;48.228;11.684;2024-01-06T03:54:09;7.80;99.90
23403;DHT22;11874;48.228;11.684;2024-01-06T03:56:37;7.80;99.90
23403;DHT22;11874;48.228;11.684;2024-01-06T03:59:05;7.80;99.90
23403;DHT22;11874;48.228;11.684;2024-01-06T04:01:33;7.80;99.90
23403;DHT22;11874;48.228;11.684;2024-01-06T04:04:02;7.80;99.90
23403;DHT22;11874;48.228;11.684;2024-01-06T04:06:32;7.80;99.90
23403;DHT22;11874;48.228;11.684;2024-01-06T04:09:02;7.80;99.90
23403;DHT22;11874;48.228;11.684;2024-01-06T04:11:30;7.80;99.90
23403;DHT22;11874;48.228;11.684;2024-01-06T04:13:58;7.80;99.90
23403;DHT22;11874;48.228;11.684;2024-01-06T04:16:26;7.80;99.90
23403;DHT22;11874;48.228;11.684;2024-01-06T04:18:54;7.80;99.90
23403;DHT22;11874;48.228;11.684;2024-01-06T04:21:23;7.70;99.90
23403;DHT22;11874;48.228;11.684;2024-01-06T04:23:52;7.80;99.90
23403;DHT22;11874;48.228;11.684;2024-01-06T04:26:22;7.80;99.90
23403;DHT22;11874;48.228;11.684;2024-01-06T04:28:52;7.80;99.90
23403;DHT22;11874;48.228;11.684;2024-01-06T04:31:22;7.70;99.90
23403;DHT22;11874;48.228;11.684;2024-01-06T04:33:50;7.70;99.90
23403;DHT22;11874;48.228;11.684;2024-01-06T04:36:18;7.70;99.90
23403;DHT22;11874;48.228;11.684;2024-01-06T04:38:46;7.70;99.90
23403;DHT22;11874;48.228;11.684;2024-01-06T04:41:15;7.70;99.90
23403;DHT22;11874;48.228;11.684;2024-01-06T04:43:43;7.70;99.90
23403;DHT22;11874;48.228;11.684;2024-01-06T04:46:11;7.70;99.90
23403;DHT22;11874;48.228;11.684;2024-01-06T04:48:40;7.60;99.90
23403;DHT22;11874;48.228;11.684;2024-01-06T04:51:10;7.60;99.90
23403;DHT22;11874;48.228;11.684;2024-01-06T04:53:39;7.60;99.90
23403;DHT22;11874;48.228;11.684;2024-01-06T04:56:07;7.60;99.90
23403;DHT22;11874;48.228;11.684;2024-01-06T04:58:36;7.60;99.90
23403;DHT22;11874;48.228;11.684;2024-01-06T05:01:04;7.60;99.90
23403;DHT22;11874;48.228;11.684;2024-01-06T05:03:32;7.60;99.90
23403;DHT22;11874;48.228;11.684;2024-01-06T05:06:00;7.70;99.90
23403;DHT22;11874;48.228;11.684;2024-01-06T05:08:29;7.60;99.90
23403;DHT22;11874;48.228;11.684;2024-01-06T05:10:57;7.60;99.90
23403;DHT22;11874;48.228;11.684;2024-01-06T05:13:26;7.60;99.90
23403;DHT22;11874;48.228;11.684;2024-01-06T05:15:55;7.50;99.90
23403;DHT22;11874;48.228;11.684;2024-01-06T05:18:22;7.50;99.90
23403;DHT22;11874;48.228;11.684;2024-01-06T05:20:51;7.50;99.90
23403;DHT22;11874;48.228;11.684;2024-01-06T05:23:19;7.50;99.90
23403;DHT22;11874;48.228;11.684;2024-01-06T05:25:47;7.50;99.90
23403;DHT22;11874;48.228;11.684;2024-01-06T05:28:15;7.60;99.90
23403;DHT22;11874;48.228;11.684;2024-01-06T05:30:43;7.50;99.90
23403;DHT22;11874;48.228;11.684;2024-01-06T05:33:12;7.50;99.90
23403;DHT22;11874;48.228;11.684;2024-01-06T05:35:43;7.50;99.90
23403;DHT22;11874;48.228;11.684;2024-01-06T05:38:11;7.50;99.90
23403;DHT22;11874;48.228;11.684;2024-01-06T05:40:39;7.50;99.90
23403;DHT22;11874;48.228;11.684;2024-01-06T05:43:07;7.50;99.90
23403;DHT22;11874;48.228;11.684;2024-01-06T05:45:36;7.50;99.90
23403;DHT22;11874;48.228;11.684;2024-01-06T05:48:06;7.50;99.90
23403;DHT22;11874;48.228;11.684;2024-01-06T05:50:37;7.40;99.90
23403;DHT22;11874;48.228;11.684;2024-01-06T05:53:07;7.50;99.90
23403;DHT22;11874;48.228;11.684;2024-01-06T05:55:37;7.50;99.90
23403;DHT22;11874;48.228;11.684;2024-01-06T05:58:05;7.50;99.90
23403;DHT22;11874;48.228;11.684;2024-01-06T06:00:34;7.50;99.90
23403;DHT22;11874;48.228;11.684;2024-01-06T06:03:02;7.50;99.90
23403;DHT22;11874;48.228;11.684;2024-01-06T06:05:29;7.40;99.90
23403;DHT22;11874;48.228;11.684;2024-01-06T06:07:59;7.40;99.90
23403;DHT22;11874;48.228;11.684;2024-01-06T06:10:28;7.40;99.90
23403;DHT22;11874;48.228;11.684;2024-01-06T06:13:07;7.40;99.90
23403;DHT22;11874;48.228;11.684;2024-01-06T06:15:37;7.40;99.90
23403;DHT22;11874;48.228;11.684;2024-01-06T06:18:13;7.40;99.90
23403;DHT22;11874;48.228;11.684;2024-01-06T06:20:41;7.40;99.90
23403;DHT22;11874;48.228;11.684;2024-01-06T06:23:11;7.40;99.90
23403;DHT22;11874;48.228;11.684;2024-01-06T06:25:42;7.40;99.90
23403;DHT22;11874;48.228;11.684;2024-01-06T06:28:10;7.40;99.90
23403;DHT22;11874;48.228;11.684;2024-01-06T06:30:38;7.40;99.90
23403;DHT22;11874;48.228;11.684;2024-01-06T06:33:09;7.40;99.90
23403;DHT22;11874;48.228;11.684;2024-01-06T06:35:38;7.40;99.90
23403;DHT22;11874;48.228;11.684;2024-01-06T06:38:06;7.40;99.90
23403;DHT22;11874;48.228;11.684;2024-01-06T06:40:35;7.40;99.90
23403;DHT22;11874;48.228;11.684;2024-01-06T06:43:03;7.40;99.90
23403;DHT22;11874;48.228;11.684;2024-01-06T06:45:31;7.40;99.90
23403;DHT22;11874;48.228;11.684;2024-01-06T06:47:59;7.30;99.90
23403;DHT22;11874;48.228;11.684;2024-01-06T06:50:27;7.30;99.90
23403;DHT22;11874;48.228;11.684;2024-01-06T06:52:55;7.30;99.90
23403;DHT22;11874;48.228;11.684;2024-01-06T06:55:23;7.30;99.90
23403;DHT22;11874;48.228;11.684;2024-01-06T06:57:53;7.30;99.90
23403;DHT22;11874;48.228;11.684;2024-01-06T07:00:24;7.30;99.90
23403;DHT22;11874;48.228;11.684;2024-01-06T07:02:53;7.30;99.90
23403;DHT22;11874;48.228;11.684;2024-01-06T07:05:21;7.30;99.90
23403;DHT22;11874;48.228;11.684;2024-01-06T07:07:49;7.30;99.90
23403;DHT22;11874;48.228;11.684;2024-01-06T07:10:17;7.30;99.90
23403;DHT22;11874;48.228;11.684;2024-01-06T07:12:45;7.20;99.90
23403;DHT22;11874;48.228;11.684;2024-01-06T07:15:15;7.20;99.90
23403;DHT22;11874;48.228;11.684;2024-01-06T07:17:43;7.30;99.90
23403;DHT22;11874;48.228;11.684;2024-01-06T07:20:11;7.20;99.90
23403;DHT22;11874;48.228;11.684;2024-01-06T07:22:40;7.20;99.90
23403;DHT22;11874;48.228;11.684;2024-01-06T07:25:08;7.20;99.90
23403;DHT22;11874;48.228;11.684;2024-01-06T07:27:37;7.20;99.90
23403;DHT22;11874;48.228;11.684;2024-01-06T07:30:05;7.20;99.90
23403;DHT22;11874;48.228;11.684;2024-01-06T07:32:36;7.20;99.90
23403;DHT22;11874;48.228;11.684;2024-01-06T07:35:04;7.20;99.90
23403;DHT22;11874;48.228;11.684;2024-01-06T07:37:33;7.20;99.90
23403;DHT22;11874;48.228;11.684;2024-01-06T07:40:02;7.20;99.90
23403;DHT22;11874;48.228;11.684;2024-01-06T07:42:30;7.20;99.90
23403;DHT22;11874;48.228;11.684;2024-01-06T07:44:58;7.20;99.90
23403;DHT22;11874;48.228;11.684;2024-01-06T07:47:26;7.20;99.90
23403;DHT22;11874;48.228;11.684;2024-01-06T07:49:56;7.10;99.90
23403;DHT22;11874;48.228;11.684;2024-01-06T07:52:26;7.10;99.90
23403;DHT22;11874;48.228;11.684;2024-01-06T07:54:56;7.10;99.90
23403;DHT22;11874;48.228;11.684;2024-01-06T07:57:25;7.10;99.90
23403;DHT22;11874;48.228;11.684;2024-01-06T07:59:53;7.10;99.90
23403;DHT22;11874;48.228;11.684;2024-01-06T08:02:21;7.10;99.90
23403;DHT22;11874;48.228;11.684;2024-01-06T08:04:56;7.10;99.90
23403;DHT22;11874;48.228;11.684;2024-01-06T08:07:24;7.10;99.90
23403;DHT22;11874;48.228;11.684;2024-01-06T08:09:52;7.10;99.90
23403;DHT22;11874;48.228;11.684;2024-01-06T08:12:20;7.10;99.90
23403;DHT22;11874;48.228;11.684;2024-01-06T08:14:48;7.10;99.90
23403;DHT22;11874;48.228;11.684;2024-01-06T08:17:16;7.10;99.90
23403;DHT22;11874;48.228;11.684;2024-01-06T08:19:46;7.10;99.90
23403;DHT22;11874;48.228;11.684;2024-01-06T08:22:16;7.10;99.90
23403;DHT22;11874;48.228;11.684;2024-01-06T08:24:49;7.00;99.90
23403;DHT22;11874;48.228;11.684;2024-01-06T08:27:19;7.20;99.90
23403;DHT22;11874;48.228;11.684;2024-01-06T08:29:48;7.10;99.90
23403;DHT22;11874;48.228;11.684;2024-01-06T08:32:16;7.10;99.90
23403;DHT22;11874;48.228;11.684;2024-01-06T08:34:44;7.10;99.90
23403;DHT22;11874;48.228;11.684;2024-01-06T08:37:12;7.10;99.90
23403;DHT22;11874;48.228;11.684;2024-01-06T08:39:42;7.10;99.90
23403;DHT22;11874;48.228;11.684;2024-01-06T08:42:09;7.10;99.90
23403;DHT22;11874;48.228;11.684;2024-01-06T08:44:37;7.10;99.90
23403;DHT22;11874;48.228;11.684;2024-01-06T08:47:06;7.10;99.90
23403;DHT22;11874;48.228;11.684;2024-01-06T08:49:35;7.00;99.90
23403;DHT22;11874;48.228;11.684;2024-01-06T08:52:05;7.00;99.90
23403;DHT22;11874;48.228;11.684;2024-01-06T08:54:33;7.00;99.90
23403;DHT22;11874;48.228;11.684;2024-01-06T08:57:04;7.10;99.90
23403;DHT22;11874;48.228;11.684;2024-01-06T08:59:33;7.10;99.90
23403;DHT22;11874;48.228;11.684;2024-01-06T09:02:01;7.10;99.90
23403;DHT22;11874;48.228;11.684;2024-01-06T09:04:29;7.10;99.90
23403;DHT22;11874;48.228;11.684;2024-01-06T09:06:59;7.10;99.90
23403;DHT22;11874;48.228;11.684;2024-01-06T09:09:27;7.10;99.90
23403;DHT22;11874;48.228;11.684;2024-01-06T09:11:56;7.10;99.90
23403;DHT22;11874;48.228;11.684;2024-01-06T09:14:27;7.10;99.90
23403;DHT22;11874;48.228;11.684;2024-01-06T09:16:59;7.10;99.90
23403;DHT22;11874;48.228;11.684;2024-01-06T09:19:27;7.10;99.90
23403;DHT22;11874;48.228;11.684;2024-01-06T09:21:57;7.10;99.90
23403;DHT22;11874;48.228;11.684;2024-01-06T09:24:25;7.10;99.90
23403;DHT22;11874;48.228;11.684;2024-01-06T09:26:54;7.10;99.90
23403;DHT22;11874;48.228;11.684;2024-01-06T09:29:22;7.10;99.90
23403;DHT22;11874;48.228;11.684;2024-01-06T09:31:52;7.10;99.90
23403;DHT22;11874;48.228;11.684;2024-01-06T09:34:19;7.10;99.90
23403;DHT22;11874;48.228;11.684;2024-01-06T09:36:51;7.10;99.90
23403;DHT22;11874;48.228;11.684;2024-01-06T09:39:19;7.10;99.90
23403;DHT22;11874;48.228;11.684;2024-01-06T09:41:49;7.00;99.90
23403;DHT22;11874;48.228;11.684;2024-01-06T09:44:17;7.00;99.90
23403;DHT22;11874;48.228;11.684;2024-01-06T09:46:48;7.00;99.90
23403;DHT22;11874;48.228;11.684;2024-01-06T09:49:20;7.00;99.90
23403;DHT22;11874;48.228;11.684;2024-01-06T09:51:51;7.00;99.90
23403;DHT22;11874;48.228;11.684;2024-01-06T09:54:22;7.00;99.90
23403;DHT22;11874;48.228;11.684;2024-01-06T09:56:50;7.00;99.90
23403;DHT22;11874;48.228;11.684;2024-01-06T09:59:19;7.00;99.90
23403;DHT22;11874;48.228;11.684;2024-01-06T10:01:47;7.00;99.90
23403;DHT22;11874;48.228;11.684;2024-01-06T10:04:16;7.00;99.90
23403;DHT22;11874;48.228;11.684;2024-01-06T10:06:50;7.00;99.90
23403;DHT22;11874;48.228;11.684;2024-01-06T10:09:22;6.90;99.90
23403;DHT22;11874;48.228;11.684;2024-01-06T10:11:55;7.00;99.90
23403;DHT22;11874;48.228;11.684;2024-01-06T10:14:24;7.00;99.90
23403;DHT22;11874;48.228;11.684;2024-01-06T10:16:52;7.00;99.90
23403;DHT22;11874;48.228;11.684;2024-01-06T10:19:20;7.00;99.90
23403;DHT22;11874;48.228;11.684;2024-01-06T10:21:51;7.00;99.90
23403;DHT22;11874;48.228;11.684;2024-01-06T10:24:19;7.00;99.90
23403;DHT22;11874;48.228;11.684;2024-01-06T10:26:47;7.00;99.90
23403;DHT22;11874;48.228;11.684;2024-01-06T10:29:15;7.00;99.90
23403;DHT22;11874;48.228;11.684;2024-01-06T10:31:46;7.00;99.90
23403;DHT22;11874;48.228;11.684;2024-01-06T10:34:20;7.00;99.90
23403;DHT22;11874;48.228;11.684;2024-01-06T10:36:58;7.00;99.90
23403;DHT22;11874;48.228;11.684;2024-01-06T10:39:28;7.00;99.90
23403;DHT22;11874;48.228;11.684;2024-01-06T10:41:56;7.10;99.90
23403;DHT22;11874;48.228;11.684;2024-01-06T10:44:25;7.10;99.90
23403;DHT22;11874;48.228;11.684;2024-01-06T10:46:54;7.10;99.90
23403;DHT22;11874;48.228;11.684;2024-01-06T10:49:25;7.10;99.90
23403;DHT22;11874;48.228;11.684;2024-01-06T10:51:53;7.10;99.90
23403;DHT22;11874;48.228;11.684;2024-01-06T10:54:23;7.10;99.90
23403;DHT22;11874;48.228;11.684;2024-01-06T10:56:52;7.10;99.90
23403;DHT22;11874;48.228;11.684;2024-01-06T10:59:20;7.10;99.90
23403;DHT22;11874;48.228;11.684;2024-01-06T11:01:49;7.10;99.90
23403;DHT22;11874;48.228;11.684;2024-01-06T11:04:19;7.10;99.90
23403;DHT22;11874;48.228;11.684;2024-01-06T11:06:48;7.10;99.90
23403;DHT22;11874;48.228;11.684;2024-01-06T11:09:19;7.20;99.90
23403;DHT22;11874;48.228;11.684;2024-01-06T11:11:49;7.20;99.90
23403;DHT22;11874;48.228;11.684;2024-01-06T11:14:25;7.20;99.90
23403;DHT22;11874;48.228;11.684;2024-01-06T11:16:55;7.20;99.90
23403;DHT22;11874;48.228;11.684;2024-01-06T11:19:42;7.20;99.90
23403;DHT22;11874;48.228;11.684;2024-01-06T11:22:25;7.20;99.90
23403;DHT22;11874;48.228;11.684;2024-01-06T11:24:57;7.20;99.90
23403;DHT22;11874;48.228;11.684;2024-01-06T11:27:36;7.20;99.90
23403;DHT22;11874;48.228;11.684;2024-01-06T11:30:05;7.20;99.90
23403;DHT22;11874;48.228;11.684;2024-01-06T11:32:34;7.20;99.90
23403;DHT22;11874;48.228;11.684;2024-01-06T11:35:12;7.20;99.90
23403;DHT22;11874;48.228;11.684;2024-01-06T11:37:53;7.20;99.90
23403;DHT22;11874;48.228;11.684;2024-01-06T11:40:30;7.20;99.90
23403;DHT22;11874;48.228;11.684;2024-01-06T11:43:01;7.20;99.90
23403;DHT22;11874;48.228;11.684;2024-01-06T11:45:29;7.20;99.90
23403;DHT22;11874;48.228;11.684;2024-01-06T11:47:59;7.20;99.90
23403;DHT22;11874;48.228;11.684;2024-01-06T11:50:30;7.20;99.90
23403;DHT22;11874;48.228;11.684;2024-01-06T11:53:01;7.20;99.90
23403;DHT22;11874;48.228;11.684;2024-01-06T11:55:32;7.20;99.90
23403;DHT22;11874;48.228;11.684;2024-01-06T11:58:03;7.10;99.90
23403;DHT22;11874;48.228;11.684;2024-01-06T12:00:33;7.10;99.90
23403;DHT22;11874;48.228;11.684;2024-01-06T12:03:05;7.20;99.90
23403;DHT22;11874;48.228;11.684;2024-01-06T12:05:33;7.10;99.90
23403;DHT22;11874;48.228;11.684;2024-01-06T12:08:04;7.20;99.90
23403;DHT22;11874;48.228;11.684;2024-01-06T12:10:35;7.20;99.90
23403;DHT22;11874;48.228;11.684;2024-01-06T12:13:05;7.20;99.90
23403;DHT22;11874;48.228;11.684;2024-01-06T12:15:36;7.20;99.90
23403;DHT22;11874;48.228;11.684;2024-01-06T12:18:07;7.10;99.90
23403;DHT22;11874;48.228;11.684;2024-01-06T12:20:35;7.10;99.90
23403;DHT22;11874;48.228;11.684;2024-01-06T12:23:06;7.10;99.90
23403;DHT22;11874;48.228;11.684;2024-01-06T12:25:34;7.10;99.90
23403;DHT22;11874;48.228;11.684;2024-01-06T12:28:08;7.10;99.90
23403;DHT22;11874;48.228;11.684;2024-01-06T12:30:38;7.10;99.90
23403;DHT22;11874;48.228;11.684;2024-01-06T12:33:07;7.10;99.90
23403;DHT22;11874;48.228;11.684;2024-01-06T12:35:35;7.10;99.90
23403;DHT22;11874;48.228;11.684;2024-01-06T12:38:08;7.00;99.90
23403;DHT22;11874;48.228;11.684;2024-01-06T12:40:36;7.10;99.90
23403;DHT22;11874;48.228;11.684;2024-01-06T12:43:04;7.10;99.90
23403;DHT22;11874;48.228;11.684;2024-01-06T12:45:34;7.10;99.90
23403;DHT22;11874;48.228;11.684;2024-01-06T12:48:02;7.10;99.90
23403;DHT22;11874;48.228;11.684;2024-01-06T12:50:31;7.10;99.90
23403;DHT22;11874;48.228;11.684;2024-01-06T12:52:59;7.10;99.90
23403;DHT22;11874;48.228;11.684;2024-01-06T12:55:26;7.10;99.90
23403;DHT22;11874;48.228;11.684;2024-01-06T12:57:55;7.10;99.90
23403;DHT22;11874;48.228;11.684;2024-01-06T13:00:27;7.10;99.90
23403;DHT22;11874;48.228;11.684;2024-01-06T13:03:01;7.10;99.90
23403;DHT22;11874;48.228;11.684;2024-01-06T13:05:30;7.10;99.90
23403;DHT22;11874;48.228;11.684;2024-01-06T13:08:00;7.10;99.90
23403;DHT22;11874;48.228;11.684;2024-01-06T13:10:29;7.10;99.90
23403;DHT22;11874;48.228;11.684;2024-01-06T13:12:57;7.10;99.90
23403;DHT22;11874;48.228;11.684;2024-01-06T13:15:25;7.10;99.90
23403;DHT22;11874;48.228;11.684;2024-01-06T13:17:53;7.10;99.90
23403;DHT22;11874;48.228;11.684;2024-01-06T13:20:25;7.00;99.90
23403;DHT22;11874;48.228;11.684;2024-01-06T13:22:53;7.00;99.90
23403;DHT22;11874;48.228;11.684;2024-01-06T13:25:22;7.00;99.90
23403;DHT22;11874;48.228;11.684;2024-01-06T13:27:50;7.00;99.90
23403;DHT22;11874;48.228;11.684;2024-01-06T13:30:18;7.00;99.90
23403;DHT22;11874;48.228;11.684;2024-01-06T13:32:47;7.10;99.90
23403;DHT22;11874;48.228;11.684;2024-01-06T13:35:18;7.00;99.90
23403;DHT22;11874;48.228;11.684;2024-01-06T13:37:47;7.00;99.90
23403;DHT22;11874;48.228;11.684;2024-01-06T13:40:19;7.10;99.90
23403;DHT22;11874;48.228;11.684;2024-01-06T13:42:49;7.00;99.90
23403;DHT22;11874;48.228;11.684;2024-01-06T13:45:20;7.00;99.90
23403;DHT22;11874;48.228;11.684;2024-01-06T13:47:50;7.00;99.90
23403;DHT22;11874;48.228;11.684;2024-01-06T13:50:22;7.00;99.90
23403;DHT22;11874;48.228;11.684;2024-01-06T13:52:51;7.00;99.90
23403;DHT22;11874;48.228;11.684;2024-01-06T13:55:20;7.00;99.90
23403;DHT22;11874;48.228;11.684;2024-01-06T13:57:50;7.00;99.90
23403;DHT22;11874;48.228;11.684;2024-01-06T14:00:18;7.00;99.90
23403;DHT22;11874;48.228;11.684;2024-01-06T14:02:49;6.90;99.90
23403;DHT22;11874;48.228;11.684;2024-01-06T14:05:17;6.90;99.90
23403;DHT22;11874;48.228;11.684;2024-01-06T14:07:46;7.00;99.90
23403;DHT22;11874;48.228;11.684;2024-01-06T14:10:18;6.90;99.90
23403;DHT22;11874;48.228;11.684;2024-01-06T14:12:46;6.90;99.90
23403;DHT22;11874;48.228;11.684;2024-01-06T14:15:14;6.90;99.90
23403;DHT22;11874;48.228;11.684;2024-01-06T14:17:42;6.90;99.90
23403;DHT22;11874;48.228;11.684;2024-01-06T14:20:16;6.90;99.90
23403;DHT22;11874;48.228;11.684;2024-01-06T14:22:45;6.90;99.90
23403;DHT22;11874;48.228;11.684;2024-01-06T14:25:13;6.90;99.90
23403;DHT22;11874;48.228;11.684;2024-01-06T14:27:48;6.90;99.90
23403;DHT22;11874;48.228;11.684;2024-01-06T14:30:16;6.90;99.90
23403;DHT22;11874;48.228;11.684;2024-01-06T14:32:46;6.90;99.90
23403;DHT22;11874;48.228;11.684;2024-01-06T14:35:14;6.80;99.90
23403;DHT22;11874;48.228;11.684;2024-01-06T14:37:43;6.90;99.90
23403;DHT22;11874;48.228;11.684;2024-01-06T14:40:12;6.90;99.90
23403;DHT22;11874;48.228;11.684;2024-01-06T14:42:41;6.80;99.90
23403;DHT22;11874;48.228;11.684;2024-01-06T14:45:10;6.80;99.90
23403;DHT22;11874;48.228;11.684;2024-01-06T14:47:40;6.70;99.90
23403;DHT22;11874;48.228;11.684;2024-01-06T14:50:08;6.70;99.90
23403;DHT22;11874;48.228;11.684;2024-01-06T14:52:36;6.60;99.90
23403;DHT22;11874;48.228;11.684;2024-01-06T14:55:04;6.60;99.90
23403;DHT22;11874;48.228;11.684;2024-01-06T14:57:33;6.60;99.90
23403;DHT22;11874;48.228;11.684;2024-01-06T15:00:01;6.60;99.90
23403;DHT22;11874;48.228;11.684;2024-01-06T15:02:31;6.60;99.90
23403;DHT22;11874;48.228;11.684;2024-01-06T15:05:01;6.60;99.90
23403;DHT22;11874;48.228;11.684;2024-01-06T15:07:31;6.60;99.90
23403;DHT22;11874;48.228;11.684;2024-01-06T15:10:06;6.50;99.90
23403;DHT22;11874;48.228;11.684;2024-01-06T15:12:36;6.50;99.90
23403;DHT22;11874;48.228;11.684;2024-01-06T15:15:05;6.50;99.90
23403;DHT22;11874;48.228;11.684;2024-01-06T15:17:36;6.50;99.90
23403;DHT22;11874;48.228;11.684;2024-01-06T15:20:07;6.60;99.90
23403;DHT22;11874;48.228;11.684;2024-01-06T15:22:36;6.60;99.90
23403;DHT22;11874;48.228;11.684;2024-01-06T15:25:08;6.60;99.90
23403;DHT22;11874;48.228;11.684;2024-01-06T15:27:43;6.60;99.90
23403;DHT22;11874;48.228;11.684;2024-01-06T15:30:11;6.50;99.90
23403;DHT22;11874;48.228;11.684;2024-01-06T15:32:41;6.60;99.90
23403;DHT22;11874;48.228;11.684;2024-01-06T15:35:10;6.50;99.90
23403;DHT22;11874;48.228;11.684;2024-01-06T15:37:38;6.50;99.90
23403;DHT22;11874;48.228;11.684;2024-01-06T15:40:06;6.50;99.90
23403;DHT22;11874;48.228;11.684;2024-01-06T15:42:34;6.50;99.90